Latest Weather Observations for Brisbane Airport

IDQ60901

Issued at 5:31 am EST Friday 19 December 2014 (issued every 10 minutes, with the page automatically refreshed every 10 minutes)

About weather observations | Map of Brisbane area stations | Latest observations for Brisbane area | Other Formats
Station Details ID: 040842 Name: BRISBANE AERO Lat: -27.39 Lon: 153.13 Height: 4.51 m
Data from the previous 72 hours. | See also: Recent months at Brisbane Airport
Date/Time
EST
Tmp

°C
App
Tmp
°C
Dew
Point
°C
Rel
Hum
%
Delta-T

°C
Wind Press
QNH
hPa
Press
MSL
hPa
Rain
since
9 am
mm
Dir
 
Spd
km/h
Gust
km/h
Spd
kts
Gust
kts
19/05:00am 21.3 23.3 19.9 92 0.9 NNW 9 13 5 7 1011.1 - 18.0
19/04:30am 21.3 23.4 20.2 93 0.7 W 9 11 5 6 1011.0 - 18.0
19/04:00am 21.3 23.5 20.4 95 0.6 SW 9 13 5 7 1010.9 - 18.0
19/03:30am 21.4 22.9 20.5 95 0.6 W 13 15 7 8 1011.1 - 17.8
19/03:00am 21.4 23.7 20.6 95 0.5 W 9 11 5 6 1011.2 1011.2 17.8
19/02:30am 21.6 23.6 20.8 95 0.5 NW 11 15 6 8 1011.5 - 17.6
19/02:00am 21.6 23.9 20.7 95 0.6 NW 9 11 5 6 1012.0 - 17.2
19/01:30am 22.1 23.8 21.0 93 0.7 NW 13 19 7 10 1012.3 - 15.6
19/01:00am 22.7 24.7 21.6 93 0.7 WNW 13 17 7 9 1012.3 - 14.4
19/12:30am 22.9 25.2 22.0 95 0.6 WNW 13 19 7 10 1012.2 - 13.0
19/12:16am 23.1 24.6 22.0 93 0.7 WNW 17 22 9 12 1012.3 - 11.4
19/12:00am 23.2 24.7 22.0 93 0.8 WNW 17 26 9 14 1012.1 1012.1 10.8
 
Date/Time
EST
Tmp

°C
App
Tmp
°C
Dew
Point
°C
Rel
Hum
%
Delta-T

°C
Wind Press
QNH
hPa
Press
MSL
hPa
Rain
since
9 am
mm
Dir
 
Spd
km/h
Gust
km/h
Spd
kts
Gust
kts
18/11:30pm 23.9 25.0 21.9 88 1.3 NNW 19 33 10 18 1011.4 - 10.6
18/11:00pm 23.7 26.0 22.0 90 1.1 N 13 15 7 8 1011.4 - 10.6
18/10:30pm 23.3 26.8 21.8 91 1.0 N 6 9 3 5 1011.5 - 10.0
18/10:00pm 23.5 27.9 21.4 88 1.4 CALM 0 0 0 0 1011.2 - 10.0
18/09:30pm 23.3 27.1 21.6 90 1.1 S 4 7 2 4 1011.2 - 10.0
18/09:00pm 23.1 25.8 21.4 90 1.1 NE 9 11 5 6 1010.8 1010.8 10.0
18/08:30pm 22.7 25.0 21.3 92 0.9 NNE 11 15 6 8 1010.7 - 10.0
18/08:00pm 22.7 25.9 21.2 91 1.0 SSE 6 11 3 6 1010.3 - 10.0
18/07:30pm 22.6 25.2 21.2 92 0.9 SSE 9 11 5 6 1010.5 - 10.0
18/07:00pm 22.5 25.0 21.1 92 0.9 S 9 17 5 9 1010.6 - 10.0
18/06:45pm 22.5 23.9 21.0 91 1.0 S 15 19 8 10 1010.0 - 9.8
18/06:30pm 22.4 21.4 21.3 93 0.7 SSW 28 39 15 21 1009.6 - 9.8
18/06:14pm 22.6 19.5 21.2 92 0.9 SW 39 52 21 28 1010.1 - 1.2
18/06:07pm 24.2 20.2 21.2 83 2.0 SW 44 54 24 29 1009.3 - 0.0
18/06:00pm 27.7 23.1 18.8 58 5.7 SW 41 54 22 29 1009.2 1009.2 0.0
18/05:55pm 28.1 23.9 19.0 57 5.9 SW 39 54 21 29 1008.7 - 0.0
18/05:53pm 28.4 26.9 21.0 64 4.9 NW 30 48 16 26 1008.7 - 0.0
18/05:46pm 27.7 26.6 22.4 73 3.6 N 32 39 17 21 1006.8 - 0.0
18/05:37pm 27.7 26.2 22.1 71 3.8 N 33 41 18 22 1006.1 - 0.0
18/05:30pm 27.7 25.7 21.9 70 3.9 N 35 44 19 24 1005.8 - 0.0
18/05:00pm 27.5 25.4 22.3 73 3.5 N 37 46 20 25 1005.5 - 0.0
18/04:30pm 27.7 25.8 22.7 74 3.4 N 37 48 20 26 1005.0 - 0.0
18/04:00pm 27.9 26.6 23.1 75 3.3 N 35 48 19 26 1005.0 - 0.0
18/03:30pm 28.0 27.9 23.6 77 3.0 NNE 30 37 16 20 1005.5 - 0.0
18/03:00pm 28.4 27.5 23.9 76 3.1 NNE 35 46 19 25 1005.8 1005.8 0.0
18/02:30pm 28.8 28.1 24.2 76 3.2 NNE 35 43 19 23 1005.8 - 0.0
18/02:00pm 29.2 29.0 24.0 73 3.6 NNE 32 39 17 21 1006.5 - 0.0
18/01:30pm 29.7 29.4 23.9 71 4.0 NNE 32 37 17 20 1007.2 - 0.0
18/01:00pm 29.5 29.9 23.2 69 4.3 NNE 26 32 14 17 1007.9 - 0.0
18/12:30pm 29.1 29.6 23.3 71 4.0 NE 26 30 14 16 1008.4 - 0.0
18/12:00pm 28.5 29.3 23.1 72 3.7 NE 24 28 13 15 1008.9 1008.9 0.0
18/11:30am 29.8 30.9 20.4 57 6.2 N 15 20 8 11 1009.3 - 0.0
18/11:00am 29.4 30.6 21.5 62 5.3 N 17 20 9 11 1009.7 - 0.0
18/10:30am 28.7 30.0 22.4 68 4.3 NNE 19 24 10 13 1010.3 - 0.0
18/10:00am 29.5 31.5 22.9 67 4.5 N 17 24 9 13 1010.7 - 0.0
18/09:30am 28.0 30.1 23.8 78 2.9 N 19 32 10 17 1010.6 - 0.0
18/09:00am 27.8 30.9 23.6 78 2.9 NNE 13 17 7 9 1010.7 1010.7 0.2
18/08:30am 27.6 30.1 23.2 77 3.0 NNE 15 19 8 10 1010.9 - 0.2
18/08:00am 26.4 30.3 22.9 81 2.4 NNE 7 13 4 7 1011.2 - 0.2
18/07:30am 25.8 28.7 22.4 81 2.3 NE 11 15 6 8 1011.0 - 0.2
18/06:30am 25.2 27.8 22.7 86 1.7 ENE 13 17 7 9 1011.1 - 0.2
18/05:50am 24.8 27.1 22.7 88 1.4 E 15 20 8 11 1010.6 - 0.2
18/05:30am 24.9 27.5 22.7 87 1.5 E 13 19 7 10 1010.1 - 0.2
18/05:00am 24.9 27.6 22.8 88 1.4 E 13 20 7 11 1010.0 - 0.2
18/04:30am 24.9 27.2 22.1 84 1.9 E 13 20 7 11 1009.3 - 0.2
18/04:00am 24.9 27.2 22.1 84 1.9 SSW 13 19 7 10 1007.9 - 0.2
18/03:30am 24.8 24.5 22.6 87 1.5 SSW 28 37 15 20 1007.6 - 0.2
18/03:00am 25.5 27.9 23.0 86 1.7 SSW 15 17 8 9 1008.2 1008.2 0.2
18/02:30am 25.5 28.9 23.4 88 1.4 ENE 11 15 6 8 1008.9 - 0.2
18/02:00am 25.5 28.4 23.1 86 1.6 SSW 13 19 7 10 1009.7 - 0.2
18/01:30am 24.7 26.5 21.2 81 2.3 SSW 13 19 7 10 1010.0 - 0.2
18/01:00am 24.0 28.1 21.6 86 1.6 NE 2 11 1 6 1009.0 - 0.2
18/12:30am 25.1 28.2 20.2 74 3.2 E 4 13 2 7 1008.8 - 0.2
18/12:18am 24.8 27.3 21.0 79 2.5 N 9 15 5 8 1008.4 - 0.2
18/12:00am 24.4 25.9 20.6 79 2.5 NNE 13 19 7 10 1007.8 1007.8 0.2
 
Date/Time
EST
Tmp

°C
App
Tmp
°C
Dew
Point
°C
Rel
Hum
%
Delta-T

°C
Wind Press
QNH
hPa
Press
MSL
hPa
Rain
since
9 am
mm
Dir
 
Spd
km/h
Gust
km/h
Spd
kts
Gust
kts
17/11:30pm 25.5 26.7 20.0 71 3.6 NNE 13 17 7 9 1007.3 - 0.0
17/11:00pm 25.8 30.1 21.1 75 3.1 CALM 0 6 0 3 1007.6 - 0.0
17/10:39pm 25.8 27.5 21.6 77 2.8 N 15 17 8 9 1007.1 - 0.0
17/10:30pm 25.5 27.3 21.9 80 2.4 N 15 19 8 10 1007.0 - 0.0
17/10:00pm 25.8 27.4 22.2 80 2.4 N 17 20 9 11 1006.8 - 0.0
17/09:30pm 25.6 28.3 23.4 88 1.5 NNE 15 19 8 10 1006.7 - 0.0
17/09:00pm 25.8 28.0 24.2 91 1.1 NNE 20 26 11 14 1006.5 1006.5 0.0
17/08:30pm 25.8 28.7 24.4 92 1.0 NNE 17 20 9 11 1006.0 - 0.0
17/08:00pm 26.1 28.5 24.2 89 1.3 N 19 26 10 14 1005.7 - 0.0
17/07:30pm 26.3 27.6 24.1 88 1.5 N 24 33 13 18 1005.6 - 0.0
17/07:00pm 26.5 28.3 24.2 87 1.6 N 22 28 12 15 1005.0 - 0.0
17/06:30pm 26.5 28.7 24.2 87 1.6 N 20 28 11 15 1004.6 - 0.0
17/06:00pm 27.1 27.7 24.1 84 2.1 N 28 33 15 18 1004.0 1004.0 0.0
17/05:30pm 27.4 28.0 24.1 82 2.3 N 28 37 15 20 1003.6 - 0.0
17/05:00pm 27.6 27.9 24.3 82 2.3 N 30 35 16 19 1003.5 - 0.0
17/04:30pm 28.1 28.5 24.4 80 2.6 N 30 39 16 21 1003.3 - 0.0
17/04:00pm 28.9 29.3 24.5 77 3.1 N 30 39 16 21 1003.2 - 0.0
17/03:30pm 29.6 29.5 24.6 74 3.5 N 33 41 18 22 1003.1 - 0.0
17/03:00pm 30.3 29.8 23.5 67 4.7 N 32 39 17 21 1003.3 1003.3 0.0
17/02:30pm 31.9 29.4 18.9 46 8.5 NNE 30 39 16 21 1003.6 - 0.0
17/02:00pm 32.1 29.9 19.5 47 8.3 NNE 30 37 16 20 1004.0 - 0.0
17/01:30pm 32.2 31.6 20.4 49 7.9 NNE 24 33 13 18 1004.4 - 0.0
17/01:00pm 31.9 31.1 20.0 49 7.9 NNE 24 30 13 16 1004.8 - 0.0
17/12:30pm 32.1 31.2 19.9 48 8.1 NNE 24 32 13 17 1005.0 - 0.0
17/12:00pm 32.0 30.1 18.6 45 8.7 NNE 26 30 14 16 1005.3 1005.3 0.0
17/11:30am 31.6 31.7 20.0 50 7.7 NNE 19 24 10 13 1005.7 - 0.0
17/11:00am 31.3 32.2 20.8 53 7.0 NNE 17 22 9 12 1006.0 - 0.0
17/10:30am 30.5 31.5 20.2 54 6.8 NNE 15 20 8 11 1006.3 - 0.0
17/10:00am 30.0 32.8 20.9 58 6.1 NNE 7 13 4 7 1006.4 - 0.0
17/09:30am 30.1 32.4 21.3 59 5.9 N 11 15 6 8 1006.6 - 0.0
17/09:00am 28.9 32.1 22.3 67 4.5 N 9 15 5 8 1006.9 1006.9 0.2
17/08:30am 28.4 32.1 22.2 69 4.2 NNE 6 11 3 6 1007.0 - 0.2
17/08:00am 27.4 30.7 21.4 70 4.0 SSW 6 7 3 4 1007.0 - 0.2
17/07:30am 26.8 31.0 21.7 73 3.4 W 2 7 1 4 1006.9 - 0.2
17/07:00am 26.3 30.3 22.1 77 2.8 WNW 4 9 2 5 1006.8 - 0.0
17/06:30am 25.2 28.2 21.9 82 2.2 W 9 11 5 6 1006.7 - 0.0
17/06:00am 23.8 28.4 21.8 88 1.3 CALM 0 6 0 3 1006.5 1006.5 0.0
17/05:30am 23.1 26.3 21.6 91 1.0 SSW 7 9 4 5 1006.2 - 0.0
17/05:00am 22.3 26.6 21.1 93 0.8 CALM 0 0 0 0 1005.7 - 0.0
17/04:30am 22.7 27.1 21.3 92 0.9 CALM 0 4 0 2 1005.3 - 0.0
17/04:00am 23.2 27.7 21.5 90 1.1 CALM 0 0 0 0 1005.2 - 0.0
17/03:30am 22.9 26.0 21.5 92 0.9 NNE 7 9 4 5 1004.8 - 0.0
17/03:00am 23.6 26.7 21.5 88 1.4 ESE 7 9 4 5 1004.7 1004.7 0.0
17/02:30am 23.8 28.5 22.0 90 1.2 CALM 0 0 0 0 1004.9 - 0.0
17/02:00am 23.9 27.4 21.8 88 1.4 ENE 6 9 3 5 1005.6 - 0.0
17/01:30am 23.9 28.3 21.3 85 1.7 CALM 0 0 0 0 1006.2 - 0.0
17/01:00am 23.6 27.8 20.9 85 1.8 CALM 0 0 0 0 1006.5 - 0.0
17/12:30am 23.4 27.3 20.3 83 2.0 CALM 0 0 0 0 1006.8 - 0.0
17/12:00am 23.4 27.4 20.6 84 1.8 CALM 0 0 0 0 1006.9 1006.9 0.0
 
Date/Time
EST
Tmp

°C
App
Tmp
°C
Dew
Point
°C
Rel
Hum
%
Delta-T

°C
Wind Press
QNH
hPa
Press
MSL
hPa
Rain
since
9 am
mm
Dir
 
Spd
km/h
Gust
km/h
Spd
kts
Gust
kts
16/11:30pm 23.5 27.0 20.4 83 2.0 SSW 2 7 1 4 1007.5 - 0.0
16/11:00pm 24.0 28.0 20.5 81 2.3 CALM 0 9 0 5 1007.8 - 0.0
16/10:30pm 24.2 24.5 20.7 81 2.3 SW 20 26 11 14 1008.6 - 0.0
16/10:00pm 24.3 25.1 21.3 83 2.0 N 19 26 10 14 1007.2 - 0.0
16/09:30pm 24.4 23.9 21.5 84 1.9 N 26 33 14 18 1006.5 - 0.0
16/09:07pm 24.4 23.4 21.2 82 2.1 N 28 46 15 25 1006.1 - 0.0
16/09:00pm 24.5 22.4 21.0 81 2.3 N 33 46 18 25 1006.1 1006.1 0.0
16/08:30pm 24.3 22.7 20.8 81 2.3 N 30 37 16 20 1006.3 - 0.0
16/08:00pm 24.4 22.7 20.6 79 2.5 N 30 35 16 19 1006.4 - 0.0
16/07:30pm 24.3 23.2 20.3 78 2.6 N 26 32 14 17 1006.3 - 0.0
16/07:00pm 24.4 22.8 20.1 77 2.8 N 28 37 15 20 1006.1 - 0.0
16/06:30pm 24.3 22.7 20.0 77 2.8 N 28 33 15 18 1005.9 - 0.0
16/06:00pm 24.6 23.6 19.6 73 3.2 N 24 32 13 17 1005.8 1005.8 0.0
16/05:30pm 24.7 22.9 19.6 73 3.3 N 28 33 15 18 1005.5 - 0.0
16/05:00pm 24.8 22.9 19.4 72 3.5 NNE 28 35 15 19 1005.1 - 0.0
16/04:30pm 25.4 23.3 19.0 67 4.1 N 28 37 15 20 1005.1 - 0.0
16/04:00pm 26.1 24.6 19.5 67 4.3 N 26 32 14 17 1005.3 - 0.0
16/03:30pm 26.0 24.5 19.5 67 4.2 N 26 33 14 18 1005.5 - 0.0
16/03:00pm 26.2 24.6 19.2 65 4.5 NNE 26 35 14 19 1006.0 1006.0 0.0
16/02:30pm 26.1 24.3 18.8 64 4.7 NNE 26 33 14 18 1006.6 - 0.0
16/02:00pm 26.4 24.2 17.9 59 5.4 N 26 33 14 18 1007.1 - 0.0
16/01:30pm 27.2 25.0 17.9 56 5.9 NNE 26 33 14 18 1007.3 - 0.0
16/01:00pm 27.2 25.6 18.3 58 5.7 NNE 24 32 13 17 1007.7 - 0.0
16/12:30pm 26.7 25.0 18.0 59 5.5 NNE 24 32 13 17 1008.1 - 0.0
16/12:00pm 26.9 25.6 18.1 58 5.6 NNE 22 30 12 16 1008.4 1008.4 0.0
16/11:30am 26.5 25.7 18.0 59 5.4 NNE 19 26 10 14 1008.8 - 0.0
16/11:00am 26.1 24.8 17.3 58 5.5 NNE 20 26 11 14 1009.3 - 0.0
16/10:30am 25.3 24.2 16.3 57 5.5 NNE 17 22 9 12 1009.7 - 0.0
16/10:00am 25.1 24.2 16.9 60 5.1 NNE 17 22 9 12 1010.0 - 0.0
16/09:30am 25.4 25.0 16.1 56 5.7 N 13 17 7 9 1010.6 - 0.0
16/09:00am 24.7 23.9 16.0 58 5.3 N 15 20 8 11 1010.7 1010.7 0.0
16/08:30am 24.3 24.0 16.5 61 4.8 N 13 17 7 9 1010.7 - 0.0
16/08:00am 24.2 24.7 16.5 62 4.7 NNW 9 13 5 7 1010.9 - 0.0
16/07:30am 23.6 24.8 15.8 61 4.7 E 4 9 2 5 1011.2 - 0.0
16/07:00am 23.0 23.7 16.1 65 4.2 SW 7 11 4 6 1011.1 - 0.0
16/06:30am 22.0 22.7 16.0 68 3.6 S 7 11 4 6 1010.9 - 0.0
16/06:00am 20.8 23.4 17.4 81 2.1 CALM 0 0 0 0 1010.7 1010.7 0.0

Latest Capital City Observations: Canberra | Sydney | Melbourne | Brisbane | Adelaide | Perth | Hobart | Darwin

Other Formats:

Comma delimited format used in spreadsheet applications
http://www.bom.gov.au/fwo/IDQ60901/IDQ60901.94578.axf

JavaScript Object Notation format (JSON) in row-major order
http://www.bom.gov.au/fwo/IDQ60901/IDQ60901.94578.json